This is the latest recevied weather packets stored in our database for station/object DL9GRB-13. If no packets are shown the sender has not sent any weather packets the latest 10 day(s).
| Time | Temp. | Humidity | Pressure | Rain* | Wind** | Luminosity | Snow |
|---|---|---|---|---|---|---|---|
| 1777636326 | 21.67° C | 39% | 1027.5 hPa | 0 mm | - | 732 W/m² | - |
| 1777635786 | 21.11° C | 37% | 1027.4 hPa | 0 mm | - | 753 W/m² | - |
| 1777635606 | 21.11° C | 37% | 1027.5 hPa | 0 mm | - | 759 W/m² | - |
| 1777635426 | 21.67° C | 37% | 1027.4 hPa | 0 mm | - | 762 W/m² | - |
| 1777635246 | 21.67° C | 36% | 1027.4 hPa | 0 mm | - | 764 W/m² | - |
| 1777635066 | 21.11° C | 40% | 1027.4 hPa | 0 mm | - | 767 W/m² | - |
| 1777634886 | 21.11° C | 39% | 1027.4 hPa | 0 mm | - | 769 W/m² | - |
| 1777634706 | 21.11° C | 38% | 1027.6 hPa | 0 mm | - | 771 W/m² | - |
| 1777634526 | 21.11° C | 38% | 1027.5 hPa | 0 mm | - | 773 W/m² | - |
| 1777634346 | 21.11° C | 38% | 1027.6 hPa | 0 mm | - | 775 W/m² | - |
| 1777634166 | 21.11° C | 35% | 1027.6 hPa | 0 mm | - | 778 W/m² | - |
| 1777633986 | 20.56° C | 37% | 1027.5 hPa | 0 mm | - | 778 W/m² | - |
| 1777633806 | 21.11° C | 33% | 1027.6 hPa | 0 mm | - | 780 W/m² | - |
| 1777633626 | 21.11° C | 37% | 1027.6 hPa | 0 mm | - | 780 W/m² | - |
| 1777633446 | 21.11° C | 37% | 1027.6 hPa | 0 mm | - | 781 W/m² | - |
| 1777633086 | 21.11° C | 38% | 1027.6 hPa | 0 mm | - | 781 W/m² | - |
| 1777632726 | 20.56° C | 40% | 1027.7 hPa | 0 mm | - | 778 W/m² | - |
| 1777632546 | 21.11° C | 39% | 1027.8 hPa | 0 mm | - | 776 W/m² | - |
| 1777632186 | 21.11° C | 38% | 1027.8 hPa | 0 mm | - | 770 W/m² | - |
| 1777632006 | 20.56° C | 39% | 1028.1 hPa | 0 mm | - | 609 W/m² | - |
| 1777631826 | 20.56° C | 39% | 1027.9 hPa | 0 mm | - | 731 W/m² | - |
| 1777631646 | 20.56° C | 38% | 1027.9 hPa | 0 mm | - | 754 W/m² | - |
| 1777631466 | 20.56° C | 38% | 1027.9 hPa | 0 mm | - | 753 W/m² | - |
| 1777631286 | 20.56° C | 39% | 1028 hPa | 0 mm | - | 746 W/m² | - |
| 1777631106 | 21.11° C | 38% | 1028 hPa | 0 mm | - | 740 W/m² | - |
* Rain latest hour (hover to see other rain measurements)
** Current wind speed in m/s (hover to see current wind gust speed)